createdAt,value
2016-09-26T00:00:27.993Z,1015.98
2016-09-26T00:01:27.976Z,1015.95
2016-09-26T00:02:27.961Z,1015.95
2016-09-26T00:03:27.944Z,1015.9
2016-09-26T00:04:27.925Z,1015.91
2016-09-26T00:05:27.915Z,1015.93
2016-09-26T00:06:27.896Z,1015.89
2016-09-26T00:07:27.881Z,1015.85
2016-09-26T00:08:27.865Z,1015.86
2016-09-26T00:09:27.848Z,1015.89
2016-09-26T00:10:27.829Z,1015.89
2016-09-26T00:11:27.816Z,1015.9
2016-09-26T00:12:27.799Z,1015.88
2016-09-26T00:13:27.784Z,1015.85
2016-09-26T00:14:27.770Z,1015.88
2016-09-26T00:15:27.770Z,1015.91
2016-09-26T00:16:27.736Z,1015.91
2016-09-26T00:17:27.717Z,1015.89
2016-09-26T00:18:27.701Z,1015.94
2016-09-26T00:19:27.683Z,1015.86
2016-09-26T00:20:27.675Z,1015.87
2016-09-26T00:21:27.654Z,1015.89
2016-09-26T00:22:27.640Z,1015.92
2016-09-26T00:23:27.622Z,1015.98
2016-09-26T00:24:27.606Z,1015.98
2016-09-26T00:25:27.589Z,1015.97
2016-09-26T00:26:27.575Z,1015.97
2016-09-26T00:27:27.557Z,1015.95
2016-09-26T00:28:27.541Z,1015.95
2016-09-26T00:29:27.523Z,1015.99
2016-09-26T00:30:27.508Z,1015.94
2016-09-26T00:31:27.493Z,1015.96
2016-09-26T00:32:27.478Z,1015.93
2016-09-26T00:33:27.463Z,1015.97
2016-09-26T00:34:27.446Z,1015.99
2016-09-26T00:35:27.428Z,1016.01
2016-09-26T00:36:27.413Z,1016.1
2016-09-26T00:37:27.396Z,1016.05
2016-09-26T00:38:27.378Z,1016.11
2016-09-26T00:39:27.363Z,1016.13
2016-09-26T00:40:27.346Z,1016.09
2016-09-26T00:41:27.329Z,1016.1
2016-09-26T00:42:27.316Z,1016.12
2016-09-26T00:43:27.296Z,1016.11
2016-09-26T00:44:27.281Z,1016.13
2016-09-26T00:45:27.365Z,1016.15
2016-09-26T00:46:27.248Z,1016.2
2016-09-26T00:47:27.233Z,1016.12
2016-09-26T00:48:27.218Z,1016.16
2016-09-26T00:49:27.199Z,1016.15
2016-09-26T00:50:27.189Z,1016.14
2016-09-26T00:51:27.172Z,1016.13
2016-09-26T00:52:27.151Z,1016.11
2016-09-26T00:53:27.134Z,1016.12
2016-09-26T00:54:27.122Z,1016.13
2016-09-26T00:55:27.104Z,1016.15
2016-09-26T00:56:27.087Z,1016.11
2016-09-26T00:57:27.071Z,1016.16
2016-09-26T00:58:27.056Z,1016.14
2016-09-26T00:59:27.041Z,1016.14
2016-09-26T01:00:27.023Z,1016.19
2016-09-26T01:01:27.007Z,1016.16
2016-09-26T01:02:26.992Z,1016.14
2016-09-26T01:03:26.975Z,1016.15
2016-09-26T01:04:26.956Z,1016.17
2016-09-26T01:05:26.942Z,1016.15
2016-09-26T01:06:26.934Z,1016.19
2016-09-26T01:07:26.909Z,1016.14
2016-09-26T01:08:26.892Z,1016.18
2016-09-26T01:09:26.876Z,1016.16
2016-09-26T01:10:26.862Z,1016.16
2016-09-26T01:11:26.850Z,1016.13
2016-09-26T01:12:26.828Z,1016.13
2016-09-26T01:13:26.814Z,1016.14
2016-09-26T01:14:26.799Z,1016.11
2016-09-26T01:15:26.780Z,1016.09
2016-09-26T01:16:26.763Z,1016.11
2016-09-26T01:17:26.750Z,1016.12
2016-09-26T01:18:26.731Z,1016.13
2016-09-26T01:19:26.715Z,1016.13
2016-09-26T01:20:26.702Z,1016.17
2016-09-26T01:21:26.685Z,1016.2
2016-09-26T01:22:26.667Z,1016.26
2016-09-26T01:23:26.651Z,1016.21
2016-09-26T01:24:26.636Z,1016.24
2016-09-26T01:25:26.618Z,1016.24
2016-09-26T01:26:26.605Z,1016.22
2016-09-26T01:27:26.585Z,1016.25
2016-09-26T01:28:26.573Z,1016.25
2016-09-26T01:29:26.556Z,1016.23
2016-09-26T01:30:26.541Z,1016.23
2016-09-26T01:31:26.523Z,1016.25
2016-09-26T01:32:26.506Z,1016.22
2016-09-26T01:33:26.490Z,1016.26
2016-09-26T01:34:26.473Z,1016.25
2016-09-26T01:35:26.457Z,1016.25
2016-09-26T01:36:26.440Z,1016.24
2016-09-26T01:37:26.427Z,1016.25
2016-09-26T01:38:26.407Z,1016.19
2016-09-26T01:39:26.391Z,1016.2
2016-09-26T01:40:26.374Z,1016.2
2016-09-26T01:41:26.359Z,1016.22
2016-09-26T01:42:26.346Z,1016.18
2016-09-26T01:43:26.329Z,1016.21
2016-09-26T01:44:26.313Z,1016.2
2016-09-26T01:45:26.294Z,1016.19
2016-09-26T01:46:26.281Z,1016.18
2016-09-26T01:47:26.264Z,1016.19
2016-09-26T01:48:26.247Z,1016.19
2016-09-26T01:49:26.231Z,1016.18
2016-09-26T01:50:26.218Z,1016.19
2016-09-26T01:51:26.200Z,1016.22
2016-09-26T01:52:26.183Z,1016.18
2016-09-26T01:53:26.165Z,1016.21
2016-09-26T01:54:26.148Z,1016.18
2016-09-26T01:55:26.133Z,1016.19
2016-09-26T01:56:26.117Z,1016.21
2016-09-26T01:57:26.101Z,1016.19
2016-09-26T01:58:26.084Z,1016.2
2016-09-26T01:59:26.067Z,1016.28
2016-09-26T02:00:26.061Z,1016.21
2016-09-26T02:01:26.038Z,1016.22
2016-09-26T02:02:26.022Z,1016.22
2016-09-26T02:03:26.004Z,1016.22
2016-09-26T02:04:25.988Z,1016.22
2016-09-26T02:05:25.974Z,1016.22
2016-09-26T02:06:25.954Z,1016.23
2016-09-26T02:07:25.945Z,1016.24
2016-09-26T02:08:25.930Z,1016.22
2016-09-26T02:09:25.904Z,1016.28
2016-09-26T02:10:25.889Z,1016.28
2016-09-26T02:11:25.874Z,1016.29
2016-09-26T02:12:25.857Z,1016.3
2016-09-26T02:13:25.841Z,1016.27
2016-09-26T02:14:25.834Z,1016.31
2016-09-26T02:15:25.811Z,1016.31
2016-09-26T02:16:25.794Z,1016.29
2016-09-26T02:17:25.779Z,1016.28
2016-09-26T02:18:25.763Z,1016.31
2016-09-26T02:19:25.742Z,1016.3
2016-09-26T02:20:25.729Z,1016.33
2016-09-26T02:21:25.711Z,1016.29
2016-09-26T02:22:25.696Z,1016.35
2016-09-26T02:23:25.676Z,1016.36
2016-09-26T02:24:25.666Z,1016.37
2016-09-26T02:25:25.650Z,1016.36
2016-09-26T02:26:25.631Z,1016.36
2016-09-26T02:27:25.614Z,1016.36
2016-09-26T02:28:25.598Z,1016.34
2016-09-26T02:29:25.581Z,1016.35
2016-09-26T02:30:25.567Z,1016.34
2016-09-26T02:31:25.549Z,1016.31
2016-09-26T02:32:25.532Z,1016.32
2016-09-26T02:33:25.517Z,1016.28
2016-09-26T02:34:25.501Z,1016.29
2016-09-26T02:35:25.488Z,1016.26
2016-09-26T02:36:25.470Z,1016.26
2016-09-26T02:37:25.451Z,1016.25
2016-09-26T02:38:25.435Z,1016.3
2016-09-26T02:39:25.419Z,1016.25
2016-09-26T02:40:25.407Z,1016.26
2016-09-26T02:41:25.387Z,1016.23
2016-09-26T02:42:25.369Z,1016.26
2016-09-26T02:43:25.354Z,1016.28
2016-09-26T02:44:25.340Z,1016.33
2016-09-26T02:45:25.321Z,1016.29
2016-09-26T02:46:25.305Z,1016.3
2016-09-26T02:47:25.287Z,1016.31
2016-09-26T02:48:25.273Z,1016.3
2016-09-26T02:49:25.254Z,1016.28
2016-09-26T02:50:25.243Z,1016.28
2016-09-26T02:51:25.223Z,1016.3
2016-09-26T02:52:25.206Z,1016.26
2016-09-26T02:53:25.192Z,1016.3
2016-09-26T02:54:25.172Z,1016.3
2016-09-26T02:55:25.158Z,1016.29
2016-09-26T02:56:25.144Z,1016.3
2016-09-26T02:57:25.124Z,1016.32
2016-09-26T02:58:25.109Z,1016.32
2016-09-26T02:59:25.094Z,1016.31
2016-09-26T03:00:25.082Z,1016.31
2016-09-26T03:01:25.059Z,1016.31
2016-09-26T03:02:25.045Z,1016.29
2016-09-26T03:03:25.026Z,1016.29
2016-09-26T03:04:25.010Z,1016.31
2016-09-26T03:05:24.996Z,1016.3
2016-09-26T03:06:24.981Z,1016.31
2016-09-26T03:07:24.965Z,1016.28
2016-09-26T03:08:24.961Z,1016.3
2016-09-26T03:09:24.932Z,1016.3
2016-09-26T03:10:24.912Z,1016.32
2016-09-26T03:11:24.902Z,1016.34
2016-09-26T03:12:24.880Z,1016.37
2016-09-26T03:13:24.867Z,1016.39
2016-09-26T03:14:24.847Z,1016.4
2016-09-26T03:15:24.832Z,1016.42
2016-09-26T03:16:24.819Z,1016.39
2016-09-26T03:17:24.798Z,1016.39
2016-09-26T03:18:24.785Z,1016.4
2016-09-26T03:19:24.767Z,1016.4
2016-09-26T03:20:24.754Z,1016.38
2016-09-26T03:21:24.735Z,1016.36
2016-09-26T03:22:24.721Z,1016.34
2016-09-26T03:23:24.703Z,1016.41
2016-09-26T03:24:24.686Z,1016.42
2016-09-26T03:25:24.668Z,1016.42
2016-09-26T03:26:24.655Z,1016.45
2016-09-26T03:27:24.636Z,1016.49
2016-09-26T03:28:24.623Z,1016.52
2016-09-26T03:29:24.607Z,1016.51
2016-09-26T03:30:24.586Z,1016.52
2016-09-26T03:31:24.575Z,1016.54
2016-09-26T03:32:24.554Z,1016.54
2016-09-26T03:33:24.539Z,1016.56
2016-09-26T03:34:24.527Z,1016.52
2016-09-26T03:35:24.511Z,1016.52
2016-09-26T03:36:24.494Z,1016.52
2016-09-26T03:37:24.471Z,1016.54
2016-09-26T03:38:24.459Z,1016.53
2016-09-26T03:39:24.443Z,1016.56
2016-09-26T03:40:24.426Z,1016.55
2016-09-26T03:41:24.407Z,1016.57
2016-09-26T03:42:24.392Z,1016.55
2016-09-26T03:43:24.376Z,1016.56
2016-09-26T03:44:24.359Z,1016.65
2016-09-26T03:45:24.344Z,1016.61
2016-09-26T03:46:24.327Z,1016.65
2016-09-26T03:47:24.310Z,1016.62
2016-09-26T03:48:24.295Z,1016.66
2016-09-26T03:49:24.278Z,1016.61
2016-09-26T03:50:24.261Z,1016.59
2016-09-26T03:51:24.243Z,1016.58
2016-09-26T03:52:24.227Z,1016.57
2016-09-26T03:53:24.213Z,1016.59
2016-09-26T03:54:24.198Z,1016.58
2016-09-26T03:55:24.178Z,1016.57
2016-09-26T03:56:24.174Z,1016.56
2016-09-26T03:57:24.146Z,1016.57
2016-09-26T03:58:24.129Z,1016.56
2016-09-26T03:59:24.113Z,1016.57
2016-09-26T04:00:24.096Z,1016.56
2016-09-26T04:01:24.080Z,1016.55
2016-09-26T04:02:24.064Z,1016.54
2016-09-26T04:03:24.046Z,1016.57
2016-09-26T04:04:24.034Z,1016.57
2016-09-26T04:05:24.012Z,1016.54
2016-09-26T04:06:23.997Z,1016.54
2016-09-26T04:07:23.984Z,1016.56
2016-09-26T04:08:23.966Z,1016.53
2016-09-26T04:09:23.949Z,1016.55
2016-09-26T04:10:23.934Z,1016.61
2016-09-26T04:11:23.917Z,1016.54
2016-09-26T04:12:23.900Z,1016.56
2016-09-26T04:13:23.884Z,1016.58
2016-09-26T04:14:23.867Z,1016.6
2016-09-26T04:15:23.853Z,1016.64
2016-09-26T04:16:23.833Z,1016.66
2016-09-26T04:17:23.817Z,1016.64
2016-09-26T04:18:23.801Z,1016.62
2016-09-26T04:19:23.787Z,1016.66
2016-09-26T04:20:23.768Z,1016.62
2016-09-26T04:21:23.750Z,1016.66
2016-09-26T04:22:23.738Z,1016.61
2016-09-26T04:23:23.722Z,1016.65
2016-09-26T04:24:23.706Z,1016.62
2016-09-26T04:25:23.687Z,1016.64
2016-09-26T04:26:23.675Z,1016.64
2016-09-26T04:27:23.657Z,1016.71
2016-09-26T04:28:23.637Z,1016.69
2016-09-26T04:29:23.622Z,1016.7
2016-09-26T04:30:23.603Z,1016.69
2016-09-26T04:31:23.587Z,1016.7
2016-09-26T04:32:23.571Z,1016.72
2016-09-26T04:33:23.554Z,1016.69
2016-09-26T04:34:23.539Z,1016.71
2016-09-26T04:35:23.525Z,1016.69
2016-09-26T04:36:23.506Z,1016.68
2016-09-26T04:37:23.491Z,1016.62
2016-09-26T04:38:23.473Z,1016.65
2016-09-26T04:39:23.459Z,1016.62
2016-09-26T04:40:23.438Z,1016.55
2016-09-26T04:41:23.423Z,1016.6
2016-09-26T04:42:23.407Z,1016.56
2016-09-26T04:43:23.392Z,1016.54
2016-09-26T04:44:23.392Z,1016.56
2016-09-26T04:45:23.360Z,1016.58
2016-09-26T04:46:23.341Z,1016.49
2016-09-26T04:47:23.325Z,1016.56
2016-09-26T04:48:23.309Z,1016.55
2016-09-26T04:49:23.291Z,1016.5
2016-09-26T04:50:23.276Z,1016.56
2016-09-26T04:51:23.263Z,1016.53
2016-09-26T04:52:23.249Z,1016.53
2016-09-26T04:53:23.228Z,1016.55
2016-09-26T04:54:23.216Z,1016.53
2016-09-26T04:55:23.195Z,1016.5
2016-09-26T04:56:23.178Z,1016.52
2016-09-26T04:57:23.160Z,1016.53
2016-09-26T04:58:23.144Z,1016.56
2016-09-26T04:59:23.128Z,1016.54
2016-09-26T05:00:23.112Z,1016.6
2016-09-26T05:01:23.093Z,1016.62
2016-09-26T05:02:23.078Z,1016.65
2016-09-26T05:03:23.087Z,1016.62
2016-09-26T05:04:23.049Z,1016.61
2016-09-26T05:05:23.036Z,1016.62
2016-09-26T05:06:23.013Z,1016.65
2016-09-26T05:07:23.002Z,1016.61
2016-09-26T05:08:22.980Z,1016.59
2016-09-26T05:09:22.963Z,1016.66
2016-09-26T05:10:22.947Z,1016.63
2016-09-26T05:11:22.930Z,1016.62
2016-09-26T05:12:22.916Z,1016.69
2016-09-26T05:13:22.901Z,1016.7
2016-09-26T05:14:22.883Z,1016.71
2016-09-26T05:15:22.864Z,1016.7
2016-09-26T05:16:22.847Z,1016.72
2016-09-26T05:17:22.834Z,1016.72
2016-09-26T05:18:22.817Z,1016.75
2016-09-26T05:19:22.802Z,1016.73
2016-09-26T05:20:22.784Z,1016.72
2016-09-26T05:21:22.765Z,1016.71
2016-09-26T05:22:22.750Z,1016.78
2016-09-26T05:23:22.732Z,1016.77
2016-09-26T05:24:22.721Z,1016.8
2016-09-26T05:25:22.700Z,1016.76
2016-09-26T05:26:22.682Z,1016.81
2016-09-26T05:27:22.667Z,1016.78
2016-09-26T05:28:22.652Z,1016.8
2016-09-26T05:29:22.635Z,1016.73
2016-09-26T05:30:22.615Z,1016.78
2016-09-26T05:31:22.601Z,1016.83
2016-09-26T05:32:22.588Z,1016.79
2016-09-26T05:33:22.567Z,1016.84
2016-09-26T05:34:22.550Z,1016.84
2016-09-26T05:35:22.533Z,1016.81
2016-09-26T05:36:22.518Z,1016.85
2016-09-26T05:37:22.500Z,1016.83
2016-09-26T05:38:22.483Z,1016.84
2016-09-26T05:39:22.467Z,1016.91
2016-09-26T05:40:22.453Z,1016.86
2016-09-26T05:41:22.438Z,1016.82
2016-09-26T05:42:22.420Z,1016.88
2016-09-26T05:43:22.403Z,1016.85
2016-09-26T05:44:22.384Z,1016.85
2016-09-26T05:45:22.366Z,1016.89
2016-09-26T05:46:22.354Z,1016.88
2016-09-26T05:47:22.335Z,1016.84
2016-09-26T05:48:22.326Z,1016.88
2016-09-26T05:49:22.302Z,1016.87
2016-09-26T05:50:22.284Z,1016.87
2016-09-26T05:51:22.269Z,1016.86
2016-09-26T05:52:22.252Z,1016.86
2016-09-26T05:53:22.239Z,1016.88
2016-09-26T05:54:22.220Z,1016.91
2016-09-26T05:55:22.202Z,1016.94
2016-09-26T05:56:22.187Z,1016.91
2016-09-26T05:57:22.169Z,1016.92
2016-09-26T05:58:22.153Z,1016.91
2016-09-26T05:59:22.137Z,1016.9
2016-09-26T06:00:22.120Z,1016.91
2016-09-26T06:01:22.108Z,1016.92
2016-09-26T06:02:22.091Z,1016.89
2016-09-26T06:03:22.069Z,1016.9
2016-09-26T06:04:22.052Z,1016.86
2016-09-26T06:05:22.037Z,1016.92
2016-09-26T06:06:22.020Z,1016.88
2016-09-26T06:07:22.005Z,1016.9
2016-09-26T06:08:21.986Z,1016.91
2016-09-26T06:09:21.970Z,1016.9
2016-09-26T06:10:21.953Z,1016.93
2016-09-26T06:11:21.937Z,1016.93
2016-09-26T06:12:21.920Z,1016.94
2016-09-26T06:13:21.908Z,1016.93
2016-09-26T06:14:21.886Z,1016.92
2016-09-26T06:15:21.871Z,1016.96
2016-09-26T06:16:21.856Z,1016.92
2016-09-26T06:17:21.838Z,1016.96
2016-09-26T06:18:21.820Z,1016.99
2016-09-26T06:19:21.805Z,1016.98
2016-09-26T06:20:21.793Z,1017.05
2016-09-26T06:21:21.770Z,1017.07
2016-09-26T06:22:21.758Z,1017.01
2016-09-26T06:23:21.740Z,1017.02
2016-09-26T06:24:21.724Z,1017.07
2016-09-26T06:25:21.703Z,1017.1
2016-09-26T06:26:21.689Z,1017.06
2016-09-26T06:27:21.677Z,1017.09
2016-09-26T06:28:21.658Z,1017.14
2016-09-26T06:29:21.642Z,1017.13
2016-09-26T06:30:21.625Z,1017.21
2016-09-26T06:31:21.609Z,1017.21
2016-09-26T06:32:21.591Z,1017.2
2016-09-26T06:33:21.571Z,1017.19
2016-09-26T06:34:21.556Z,1017.24
2016-09-26T06:35:21.539Z,1017.22
2016-09-26T06:36:21.522Z,1017.2
2016-09-26T06:37:21.506Z,1017.19
2016-09-26T06:38:21.489Z,1017.2
2016-09-26T06:39:21.472Z,1017.19
2016-09-26T06:40:21.459Z,1017.19
2016-09-26T06:41:21.442Z,1017.17
2016-09-26T06:42:21.423Z,1017.23
2016-09-26T06:43:21.405Z,1017.25
2016-09-26T06:44:21.390Z,1017.27
2016-09-26T06:45:21.591Z,1017.23
2016-09-26T06:46:21.360Z,1017.25
2016-09-26T06:47:21.340Z,1017.21
2016-09-26T06:48:21.325Z,1017.21
2016-09-26T06:49:21.307Z,1017.21
2016-09-26T06:50:21.288Z,1017.19
2016-09-26T06:51:21.282Z,1017.24
2016-09-26T06:52:21.259Z,1017.22
2016-09-26T06:53:21.240Z,1017.24
2016-09-26T06:54:21.225Z,1017.22
2016-09-26T06:55:21.209Z,1017.26
2016-09-26T06:56:21.189Z,1017.25
2016-09-26T06:57:21.173Z,1017.29
2016-09-26T06:58:21.158Z,1017.32
2016-09-26T06:59:21.137Z,1017.31
2016-09-26T07:00:21.123Z,1017.29
2016-09-26T07:01:21.111Z,1017.33
2016-09-26T07:02:21.088Z,1017.37
2016-09-26T07:03:21.073Z,1017.37
2016-09-26T07:04:21.056Z,1017.39
2016-09-26T07:05:21.043Z,1017.36
2016-09-26T07:06:21.024Z,1017.4
2016-09-26T07:07:21.007Z,1017.4
2016-09-26T07:08:20.991Z,1017.43
2016-09-26T07:09:20.975Z,1017.41
2016-09-26T07:10:20.960Z,1017.45
2016-09-26T07:11:20.940Z,1017.47
2016-09-26T07:12:20.925Z,1017.46
2016-09-26T07:13:20.906Z,1017.44
2016-09-26T07:14:20.890Z,1017.47
2016-09-26T07:15:20.874Z,1017.47
2016-09-26T07:16:20.855Z,1017.44
2016-09-26T07:17:20.839Z,1017.37
2016-09-26T07:18:20.824Z,1017.41
2016-09-26T07:19:20.808Z,1017.41
2016-09-26T07:20:20.791Z,1017.43
2016-09-26T07:21:20.777Z,1017.44
2016-09-26T07:22:20.772Z,1017.47
2016-09-26T07:23:20.741Z,1017.48
2016-09-26T07:24:20.722Z,1017.47
2016-09-26T07:25:20.710Z,1017.51
2016-09-26T07:26:20.689Z,1017.53
2016-09-26T07:27:20.677Z,1017.54
2016-09-26T07:28:20.657Z,1017.49
2016-09-26T07:29:20.642Z,1017.55
2016-09-26T07:30:20.625Z,1017.52
2016-09-26T07:31:20.606Z,1017.53
2016-09-26T07:32:20.591Z,1017.56
2016-09-26T07:33:20.575Z,1017.56
2016-09-26T07:34:20.555Z,1017.56
2016-09-26T07:35:20.538Z,1017.49
2016-09-26T07:36:20.523Z,1017.56
2016-09-26T07:37:20.510Z,1017.57
2016-09-26T07:38:20.495Z,1017.54
2016-09-26T07:39:20.477Z,1017.54
2016-09-26T07:40:20.457Z,1017.58
2016-09-26T07:41:20.441Z,1017.54
2016-09-26T07:42:20.426Z,1017.51
2016-09-26T07:43:20.409Z,1017.52
2016-09-26T07:44:20.392Z,1017.56
2016-09-26T07:45:20.373Z,1017.49
2016-09-26T07:46:20.358Z,1017.52
2016-09-26T07:47:20.341Z,1017.47
2016-09-26T07:48:20.327Z,1017.52
2016-09-26T07:49:20.308Z,1017.48
2016-09-26T07:50:20.293Z,1017.49
2016-09-26T07:51:20.274Z,1017.44
2016-09-26T07:52:20.264Z,1017.47
2016-09-26T07:53:20.241Z,1017.5
2016-09-26T07:54:20.226Z,1017.5
2016-09-26T07:55:20.207Z,1017.51
2016-09-26T07:56:20.191Z,1017.46
2016-09-26T07:57:20.173Z,1017.48
2016-09-26T07:58:20.159Z,1017.47
2016-09-26T07:59:20.144Z,1017.49
2016-09-26T08:00:20.129Z,1017.44
2016-09-26T08:01:20.109Z,1017.46
2016-09-26T08:02:20.093Z,1017.44
2016-09-26T08:03:20.076Z,1017.45
2016-09-26T08:04:20.061Z,1017.46
2016-09-26T08:05:20.043Z,1017.46
2016-09-26T08:06:20.026Z,1017.48
2016-09-26T08:07:20.015Z,1017.48
2016-09-26T08:08:19.993Z,1017.46
2016-09-26T08:09:19.974Z,1017.49
2016-09-26T08:10:19.960Z,1017.53
2016-09-26T08:11:19.942Z,1017.5
2016-09-26T08:12:19.928Z,1017.53
2016-09-26T08:13:19.910Z,1017.58
2016-09-26T08:14:19.893Z,1017.55
2016-09-26T08:15:19.877Z,1017.57
2016-09-26T08:16:19.872Z,1017.57
2016-09-26T08:17:19.847Z,1017.57
2016-09-26T08:18:19.825Z,1017.6
2016-09-26T08:19:19.815Z,1017.6
2016-09-26T08:20:19.789Z,1017.61
2016-09-26T08:21:19.775Z,1017.59
2016-09-26T08:22:19.759Z,1017.6
2016-09-26T08:23:19.742Z,1017.64
2016-09-26T08:24:19.730Z,1017.61
2016-09-26T08:25:19.708Z,1017.64
2016-09-26T08:26:19.689Z,1017.63
2016-09-26T08:27:19.678Z,1017.64
2016-09-26T08:28:19.657Z,1017.63
2016-09-26T08:29:19.644Z,1017.58
2016-09-26T08:30:19.624Z,1017.6
2016-09-26T08:31:19.610Z,1017.61
2016-09-26T08:32:19.596Z,1017.62
2016-09-26T08:33:19.579Z,1017.6
2016-09-26T08:34:19.562Z,1017.61
2016-09-26T08:35:19.544Z,1017.63
2016-09-26T08:36:19.526Z,1017.64
2016-09-26T08:37:19.512Z,1017.63
2016-09-26T08:38:19.507Z,1017.64
2016-09-26T08:39:19.478Z,1017.63
2016-09-26T08:40:19.458Z,1017.64
2016-09-26T08:41:19.446Z,1017.66
2016-09-26T08:42:19.430Z,1017.68
2016-09-26T08:43:19.414Z,1017.65
2016-09-26T08:44:19.395Z,1017.64
2016-09-26T08:45:19.380Z,1017.63
2016-09-26T08:46:19.363Z,1017.62
2016-09-26T08:47:19.343Z,1017.65
2016-09-26T08:48:19.327Z,1017.64
2016-09-26T08:49:19.312Z,1017.68
2016-09-26T08:50:19.296Z,1017.63
2016-09-26T08:51:19.280Z,1017.66
2016-09-26T08:52:19.269Z,1017.67
2016-09-26T08:53:19.246Z,1017.7
2016-09-26T08:54:19.233Z,1017.62
2016-09-26T08:55:19.212Z,1017.66
2016-09-26T08:56:19.196Z,1017.68
2016-09-26T08:57:19.182Z,1017.72
2016-09-26T08:58:19.163Z,1017.67
2016-09-26T08:59:19.148Z,1017.65
2016-09-26T09:00:19.131Z,1017.67
2016-09-26T09:01:19.111Z,1017.66
2016-09-26T09:02:19.096Z,1017.66
2016-09-26T09:03:19.085Z,1017.67
2016-09-26T09:04:19.116Z,1017.66
2016-09-26T09:05:19.049Z,1017.65
2016-09-26T09:06:19.031Z,1017.63
2016-09-26T09:07:19.018Z,1017.64
2016-09-26T09:08:19.001Z,1017.63
2016-09-26T09:09:18.984Z,1017.64
2016-09-26T09:10:18.968Z,1017.67
2016-09-26T09:11:18.950Z,1017.6
2016-09-26T09:12:18.936Z,1017.6
2016-09-26T09:13:18.919Z,1017.66
2016-09-26T09:14:18.901Z,1017.61
2016-09-26T09:15:18.886Z,1017.6
2016-09-26T09:16:18.869Z,1017.61
2016-09-26T09:17:18.852Z,1017.59
2016-09-26T09:18:18.831Z,1017.59
2016-09-26T09:19:18.819Z,1017.6
2016-09-26T09:20:18.800Z,1017.62
2016-09-26T09:21:18.781Z,1017.63
2016-09-26T09:22:18.770Z,1017.64
2016-09-26T09:23:18.753Z,1017.63
2016-09-26T09:24:18.738Z,1017.63
2016-09-26T09:25:18.721Z,1017.61
2016-09-26T09:26:18.708Z,1017.63
2016-09-26T09:27:18.689Z,1017.62
2016-09-26T09:28:18.669Z,1017.63
2016-09-26T09:29:18.655Z,1017.62
2016-09-26T09:30:18.644Z,1017.63
2016-09-26T09:31:18.622Z,1017.63
2016-09-26T09:32:18.605Z,1017.65
2016-09-26T09:33:18.590Z,1017.65
2016-09-26T09:34:18.571Z,1017.66
2016-09-26T09:35:18.557Z,1017.62
2016-09-26T09:36:18.541Z,1017.62
2016-09-26T09:37:18.525Z,1017.67
2016-09-26T09:38:18.508Z,1017.63
2016-09-26T09:39:18.492Z,1017.6
2016-09-26T09:40:18.479Z,1017.63
2016-09-26T09:41:18.464Z,1017.61
2016-09-26T09:42:18.444Z,1017.59
2016-09-26T09:43:18.427Z,1017.63
2016-09-26T09:44:18.413Z,1017.6
2016-09-26T09:45:18.395Z,1017.64
2016-09-26T09:46:18.378Z,1017.6
2016-09-26T09:47:18.361Z,1017.6
2016-09-26T09:48:18.351Z,1017.62
2016-09-26T09:49:18.332Z,1017.63
2016-09-26T09:50:18.314Z,1017.56
2016-09-26T09:51:18.295Z,1017.59
2016-09-26T09:52:18.283Z,1017.59
2016-09-26T09:53:18.263Z,1017.6
2016-09-26T09:54:18.252Z,1017.6
2016-09-26T09:55:18.232Z,1017.63
2016-09-26T09:56:18.218Z,1017.54
2016-09-26T09:57:18.202Z,1017.59
2016-09-26T09:58:18.187Z,1017.58
2016-09-26T09:59:18.164Z,1017.6
2016-09-26T10:00:18.151Z,1017.57
2016-09-26T10:01:18.140Z,1017.56
2016-09-26T10:02:18.117Z,1017.52
2016-09-26T10:03:18.103Z,1017.58
2016-09-26T10:04:18.088Z,1017.52
2016-09-26T10:05:18.070Z,1017.55
2016-09-26T10:06:18.055Z,1017.52
2016-09-26T10:07:18.039Z,1017.55
2016-09-26T10:08:18.025Z,1017.51
2016-09-26T10:09:18.004Z,1017.54
2016-09-26T10:10:17.987Z,1017.57
2016-09-26T10:11:17.969Z,1017.56
2016-09-26T10:12:17.956Z,1017.57
2016-09-26T10:13:17.940Z,1017.53
2016-09-26T10:14:17.925Z,1017.54
2016-09-26T10:15:17.905Z,1017.55
2016-09-26T10:16:17.889Z,1017.56
2016-09-26T10:17:17.874Z,1017.57
2016-09-26T10:18:17.859Z,1017.53
2016-09-26T10:19:17.840Z,1017.57
2016-09-26T10:20:17.827Z,1017.58
2016-09-26T10:21:17.809Z,1017.6
2016-09-26T10:22:17.792Z,1017.55
2016-09-26T10:23:17.777Z,1017.61
2016-09-26T10:24:17.759Z,1017.59
2016-09-26T10:25:17.746Z,1017.6
2016-09-26T10:26:17.725Z,1017.56
2016-09-26T10:27:17.715Z,1017.57
2016-09-26T10:28:17.693Z,1017.55
2016-09-26T10:29:17.678Z,1017.57
2016-09-26T10:30:17.661Z,1017.55
2016-09-26T10:31:17.644Z,1017.54
2016-09-26T10:32:17.628Z,1017.58
2016-09-26T10:33:17.614Z,1017.5
2016-09-26T10:34:17.596Z,1017.5
2016-09-26T10:35:17.584Z,1017.53
2016-09-26T10:36:17.565Z,1017.46
2016-09-26T10:37:17.547Z,1017.5
2016-09-26T10:38:17.532Z,1017.44
2016-09-26T10:39:17.517Z,1017.43
2016-09-26T10:40:17.500Z,1017.46
2016-09-26T10:41:17.482Z,1017.45
2016-09-26T10:42:17.468Z,1017.5
2016-09-26T10:43:17.458Z,1017.51
2016-09-26T10:44:17.433Z,1017.52
2016-09-26T10:45:17.422Z,1017.52
2016-09-26T10:46:17.403Z,1017.53
2016-09-26T10:47:17.386Z,1017.54
2016-09-26T10:48:17.369Z,1017.49
2016-09-26T10:49:17.352Z,1017.49
2016-09-26T10:50:17.337Z,1017.47
2016-09-26T10:51:17.319Z,1017.51
2016-09-26T10:52:17.305Z,1017.53
2016-09-26T10:53:17.286Z,1017.51
2016-09-26T10:54:17.273Z,1017.55
2016-09-26T10:55:17.254Z,1017.54
2016-09-26T10:56:17.236Z,1017.54
2016-09-26T10:57:17.222Z,1017.53
2016-09-26T10:58:17.207Z,1017.52
2016-09-26T10:59:17.189Z,1017.48
2016-09-26T11:00:17.173Z,1017.51
2016-09-26T11:01:17.156Z,1017.51
2016-09-26T11:02:17.140Z,1017.49
2016-09-26T11:03:17.122Z,1017.52
2016-09-26T11:04:17.107Z,1017.5
2016-09-26T11:05:17.086Z,1017.52
2016-09-26T11:06:17.074Z,1017.44
2016-09-26T11:07:17.057Z,1017.46
2016-09-26T11:08:17.040Z,1017.4
2016-09-26T11:09:17.029Z,1017.43
2016-09-26T11:10:17.005Z,1017.44
2016-09-26T11:11:16.992Z,1017.44
2016-09-26T11:12:16.975Z,1017.45
2016-09-26T11:13:16.957Z,1017.43
2016-09-26T11:14:16.941Z,1017.43
2016-09-26T11:15:16.924Z,1017.42
2016-09-26T11:16:16.907Z,1017.42
2016-09-26T11:17:16.891Z,1017.43
2016-09-26T11:18:16.874Z,1017.4
2016-09-26T11:19:16.864Z,1017.42
2016-09-26T11:20:16.841Z,1017.44
2016-09-26T11:21:16.823Z,1017.42
2016-09-26T11:22:16.809Z,1017.44
2016-09-26T11:23:16.797Z,1017.4
2016-09-26T11:24:16.778Z,1017.38
2016-09-26T11:25:16.760Z,1017.4
2016-09-26T11:26:16.747Z,1017.43
2016-09-26T11:27:16.725Z,1017.44
2016-09-26T11:28:16.709Z,1017.39
2016-09-26T11:29:16.696Z,1017.38
2016-09-26T11:30:16.673Z,1017.4
2016-09-26T11:31:16.662Z,1017.42
2016-09-26T11:32:16.640Z,1017.42
2016-09-26T11:33:16.624Z,1017.42
2016-09-26T11:34:16.609Z,1017.38
2016-09-26T11:35:16.591Z,1017.43
2016-09-26T11:36:16.579Z,1017.41
2016-09-26T11:37:16.561Z,1017.42
2016-09-26T11:38:16.550Z,1017.36
2016-09-26T11:39:16.527Z,1017.37
2016-09-26T11:40:16.510Z,1017.35
2016-09-26T11:41:16.492Z,1017.34
2016-09-26T11:42:16.477Z,1017.31
2016-09-26T11:43:16.457Z,1017.31
2016-09-26T11:44:16.442Z,1017.29
2016-09-26T11:45:16.425Z,1017.28
2016-09-26T11:46:16.408Z,1017.33
2016-09-26T11:47:16.392Z,1017.35
2016-09-26T11:48:16.375Z,1017.31
2016-09-26T11:49:16.362Z,1017.36
2016-09-26T11:50:16.344Z,1017.29
2016-09-26T11:51:16.325Z,1017.33
2016-09-26T11:52:16.310Z,1017.3
2016-09-26T11:53:16.294Z,1017.3
2016-09-26T11:54:16.276Z,1017.32
2016-09-26T11:55:16.259Z,1017.27
2016-09-26T11:56:16.245Z,1017.23
2016-09-26T11:57:16.226Z,1017.25
2016-09-26T11:58:16.214Z,1017.26
2016-09-26T11:59:16.198Z,1017.25
2016-09-26T12:00:16.178Z,1017.21
2016-09-26T12:01:16.165Z,1017.22
2016-09-26T12:02:16.148Z,1017.19
2016-09-26T12:03:16.131Z,1017.21
2016-09-26T12:04:16.113Z,1017.16
2016-09-26T12:05:16.096Z,1017.18
2016-09-26T12:06:16.081Z,1017.18
2016-09-26T12:07:16.064Z,1017.13
2016-09-26T12:08:16.046Z,1017.16